createdAt,value
2023-02-26T10:39:03.915Z,-3.09
2023-02-26T10:40:51.752Z,-2.55
2023-02-26T10:42:29.996Z,-1.99
2023-02-26T10:44:14.426Z,-1.43
2023-02-26T10:46:06.420Z,-0.85
2023-02-26T10:47:44.641Z,-0.42
2023-02-26T10:49:58.668Z,0.06
2023-02-26T10:51:40.269Z,0.49
2023-02-26T10:53:12.860Z,0.80
2023-02-26T10:54:55.999Z,1.08
2023-02-26T10:56:32.993Z,1.35
2023-02-26T10:58:05.199Z,1.53
2023-02-26T10:59:36.943Z,1.66
2023-02-26T11:01:18.652Z,1.75
2023-02-26T11:02:53.589Z,1.83
2023-02-26T11:04:27.317Z,1.88
2023-02-26T11:05:59.156Z,1.92
2023-02-26T11:07:32.516Z,1.98
2023-02-26T11:09:14.084Z,2.05
2023-02-26T11:10:53.486Z,2.09
2023-02-26T11:12:25.688Z,2.15
2023-02-26T11:13:57.698Z,2.23
2023-02-26T11:15:30.212Z,2.34
2023-02-26T11:17:05.164Z,2.46
2023-02-26T11:18:43.809Z,2.60
2023-02-26T11:20:30.241Z,2.78
2023-02-26T11:22:04.374Z,2.99
2023-02-26T11:23:36.172Z,3.16
2023-02-26T11:25:14.651Z,3.35
2023-02-26T11:26:48.863Z,3.52
2023-02-26T11:28:30.066Z,3.66
2023-02-26T11:30:14.991Z,3.78
2023-02-26T11:31:55.531Z,3.87
2023-02-26T11:33:34.381Z,3.94
2023-02-26T11:35:09.495Z,3.97
2023-02-26T11:36:44.402Z,3.97
2023-02-26T11:38:23.188Z,3.93
2023-02-26T11:40:00.645Z,3.91
2023-02-26T11:41:37.798Z,3.87
2023-02-26T11:43:15.428Z,3.83
2023-02-26T11:44:48.391Z,3.77
2023-02-26T11:46:25.201Z,3.71
2023-02-26T11:48:02.477Z,3.63
2023-02-26T11:49:34.488Z,3.57
2023-02-26T11:51:08.434Z,3.48
2023-02-26T11:52:42.533Z,3.39
2023-02-26T11:54:22.920Z,3.28
2023-02-26T11:56:04.465Z,3.22
2023-02-26T11:57:42.621Z,3.16
2023-02-26T11:59:21.904Z,3.12
2023-02-26T12:00:57.836Z,3.06
2023-02-26T12:02:35.487Z,3.02
2023-02-26T12:04:11.342Z,3.01
2023-02-26T12:05:43.346Z,2.99
2023-02-26T12:07:16.707Z,2.97
2023-02-26T12:08:49.230Z,2.96
2023-02-26T12:10:30.507Z,2.96
2023-02-26T12:12:25.635Z,3.00
2023-02-26T12:14:12.532Z,3.03
2023-02-26T12:16:06.092Z,3.05
2023-02-26T12:17:47.156Z,3.08
2023-02-26T12:19:19.930Z,3.14
2023-02-26T12:21:18.104Z,3.15
2023-02-26T12:23:11.756Z,3.17
2023-02-26T12:25:06.101Z,3.19
2023-02-26T12:26:57.950Z,3.16
2023-02-26T12:28:58.620Z,3.09
2023-02-26T12:30:50.535Z,3.02
2023-02-26T12:32:52.806Z,2.89
2023-02-26T12:34:47.115Z,2.77
2023-02-26T12:36:55.983Z,2.63
2023-02-26T12:38:52.291Z,2.48
2023-02-26T12:41:01.105Z,2.36
2023-02-26T12:42:53.447Z,2.28
2023-02-26T12:44:42.962Z,2.18
2023-02-26T12:46:29.723Z,2.15
2023-02-26T12:48:34.029Z,2.07
2023-02-26T12:50:34.320Z,2.04
2023-02-26T12:52:23.936Z,2.03
2023-02-26T12:54:29.063Z,1.99
2023-02-26T12:56:13.020Z,2.02
2023-02-26T12:58:13.463Z,1.98
2023-02-26T13:00:14.839Z,2.01
2023-02-26T13:02:00.937Z,2.03
2023-02-26T13:03:47.398Z,2.06
2023-02-26T13:05:31.194Z,2.12
2023-02-26T13:07:14.859Z,2.15
2023-02-26T13:09:02.265Z,2.19
2023-02-26T13:10:51.896Z,2.25
2023-02-26T13:12:54.967Z,2.30
2023-02-26T13:14:33.362Z,2.38
2023-02-26T13:16:18.938Z,2.41
2023-02-26T13:18:23.331Z,2.40
2023-02-26T13:20:11.669Z,2.44
2023-02-26T13:21:57.171Z,2.40
2023-02-26T13:24:05.780Z,2.37
2023-02-26T13:25:52.590Z,2.37
2023-02-26T13:27:31.139Z,2.36
2023-02-26T13:29:09.231Z,2.33
2023-02-26T13:30:50.375Z,2.25
2023-02-26T13:32:26.042Z,2.21
2023-02-26T13:34:06.031Z,2.14
2023-02-26T13:35:42.651Z,2.12
2023-02-26T13:37:33.478Z,2.05
2023-02-26T13:39:22.780Z,1.97
2023-02-26T13:41:10.209Z,1.91
2023-02-26T13:43:10.737Z,1.86
2023-02-26T13:45:12.210Z,1.77
2023-02-26T13:47:10.868Z,1.74
2023-02-26T13:48:58.628Z,1.65
2023-02-26T13:51:12.275Z,1.54
2023-02-26T13:53:03.039Z,1.45
2023-02-26T13:54:44.695Z,1.45
2023-02-26T13:56:22.291Z,1.41
2023-02-26T13:57:54.217Z,1.37
2023-02-26T13:59:35.611Z,1.30
2023-02-26T14:01:14.236Z,1.26
2023-02-26T14:02:50.412Z,1.29
2023-02-26T14:04:26.323Z,1.29
2023-02-26T14:06:08.762Z,1.30
2023-02-26T14:08:20.790Z,1.32
2023-02-26T14:10:04.158Z,1.41
2023-02-26T14:11:59.716Z,1.44
2023-02-26T14:13:40.042Z,1.53
2023-02-26T14:15:11.733Z,1.59
2023-02-26T14:16:49.325Z,1.65
2023-02-26T14:18:41.281Z,1.68
2023-02-26T14:20:20.235Z,1.76
2023-02-26T14:21:59.048Z,1.82
2023-02-26T14:23:36.467Z,1.85
2023-02-26T14:25:28.190Z,1.86
2023-02-26T14:27:22.149Z,1.88
2023-02-26T14:28:58.839Z,1.92
2023-02-26T14:30:34.615Z,1.91
2023-02-26T14:32:27.391Z,1.85
2023-02-26T14:34:10.038Z,1.84
2023-02-26T14:35:45.228Z,1.83
2023-02-26T14:37:22.943Z,1.76
2023-02-26T14:38:58.646Z,1.73
2023-02-26T14:40:38.256Z,1.72
2023-02-26T14:42:18.077Z,1.75
2023-02-26T14:43:59.286Z,1.83
2023-02-26T14:45:33.261Z,1.93
2023-02-26T14:47:05.373Z,2.09
2023-02-26T14:48:38.848Z,2.23
2023-02-26T14:50:22.350Z,2.36
2023-02-26T14:52:13.898Z,2.56
2023-02-26T14:53:52.558Z,2.69
2023-02-26T14:55:56.890Z,2.88
2023-02-26T14:58:04.516Z,2.99
2023-02-26T14:59:45.051Z,3.15
2023-02-26T15:01:37.001Z,3.22
2023-02-26T15:03:15.110Z,3.33
2023-02-26T15:05:10.530Z,3.35
2023-02-26T15:06:59.680Z,3.40
2023-02-26T15:08:50.088Z,3.43
2023-02-26T15:10:44.884Z,3.38
2023-02-26T15:12:34.918Z,3.34
2023-02-26T15:14:26.301Z,3.26
2023-02-26T15:16:06.529Z,3.21
2023-02-26T15:17:46.816Z,3.16
2023-02-26T15:19:42.739Z,3.01
2023-02-26T15:21:20.183Z,2.97
2023-02-26T15:23:06.276Z,2.88
2023-02-26T15:24:40.053Z,2.81
2023-02-26T15:26:42.521Z,2.69
2023-02-26T15:28:36.820Z,2.61
2023-02-26T15:30:15.008Z,2.54
2023-02-26T15:31:55.469Z,2.45
2023-02-26T15:33:27.866Z,2.36
2023-02-26T15:35:05.177Z,2.30
2023-02-26T15:36:37.051Z,2.21
2023-02-26T15:38:09.397Z,2.13
2023-02-26T15:39:41.847Z,2.06
2023-02-26T15:41:14.750Z,1.96
2023-02-26T15:42:51.394Z,1.90
2023-02-26T15:44:28.500Z,1.83
2023-02-26T15:46:03.078Z,1.76
2023-02-26T15:47:35.294Z,1.70
2023-02-26T15:49:30.063Z,1.62
2023-02-26T15:51:04.658Z,1.55
2023-02-26T15:52:36.358Z,1.51
2023-02-26T15:54:08.092Z,1.44
2023-02-26T15:55:50.472Z,1.37
2023-02-26T15:57:24.523Z,1.31
2023-02-26T15:59:03.287Z,1.24
2023-02-26T16:00:37.051Z,1.18
2023-02-26T16:02:13.187Z,1.11
2023-02-26T16:03:44.870Z,1.04
2023-02-26T16:05:18.606Z,0.99
2023-02-26T16:06:55.578Z,0.92
2023-02-26T16:08:29.095Z,0.86
2023-02-26T16:10:07.380Z,0.79
2023-02-26T16:11:42.117Z,0.73
2023-02-26T16:13:17.852Z,0.66
2023-02-26T16:14:53.847Z,0.60
2023-02-26T16:16:29.713Z,0.53
2023-02-26T16:18:05.807Z,0.49
2023-02-26T16:19:57.559Z,0.39
2023-02-26T16:21:35.647Z,0.38
2023-02-26T16:23:13.298Z,0.35
2023-02-26T16:24:56.154Z,0.28
2023-02-26T16:26:33.514Z,0.26
2023-02-26T16:28:12.857Z,0.22
2023-02-26T16:29:51.843Z,0.16
2023-02-26T16:31:25.820Z,0.14
2023-02-26T16:32:59.462Z,0.09
2023-02-26T16:34:40.404Z,0.04
2023-02-26T16:36:16.064Z,0.02
2023-02-26T16:37:52.564Z,-0.02
2023-02-26T16:39:27.832Z,-0.05
2023-02-26T16:41:06.103Z,-0.10
2023-02-26T16:42:50.505Z,-0.16
2023-02-26T16:44:47.372Z,-0.23
2023-02-26T16:46:37.744Z,-0.26
2023-02-26T16:48:27.036Z,-0.35
2023-02-26T16:49:59.143Z,-0.39
2023-02-26T16:51:34.607Z,-0.44
2023-02-26T16:53:18.887Z,-0.52
2023-02-26T16:54:56.756Z,-0.57
2023-02-26T16:56:34.536Z,-0.65
2023-02-26T16:58:14.399Z,-0.71
2023-02-26T16:59:53.726Z,-0.79
2023-02-26T17:01:26.078Z,-0.83
2023-02-26T17:03:09.197Z,-0.90
2023-02-26T17:04:41.958Z,-0.96
2023-02-26T17:06:17.710Z,-1.03
2023-02-26T17:08:00.114Z,-1.09
2023-02-26T17:09:39.309Z,-1.16
2023-02-26T17:11:21.756Z,-1.22
2023-02-26T17:13:03.897Z,-1.29
2023-02-26T17:14:41.027Z,-1.31
2023-02-26T17:16:13.298Z,-1.36
2023-02-26T17:17:46.255Z,-1.39
2023-02-26T17:19:18.839Z,-1.44
2023-02-26T17:20:51.026Z,-1.48
2023-02-26T17:22:28.614Z,-1.52
2023-02-26T17:24:00.320Z,-1.56
2023-02-26T17:25:37.932Z,-1.60
2023-02-26T17:27:14.794Z,-1.62
2023-02-26T17:28:46.558Z,-1.65
2023-02-26T17:30:21.285Z,-1.68
2023-02-26T17:31:53.101Z,-1.70
2023-02-26T17:33:25.596Z,-1.72
2023-02-26T17:34:58.341Z,-1.72
2023-02-26T17:36:30.773Z,-1.72
2023-02-26T17:38:02.909Z,-1.73
2023-02-26T17:39:34.630Z,-1.72
2023-02-26T17:41:06.403Z,-1.70
2023-02-26T17:42:38.338Z,-1.69
2023-02-26T17:44:10.337Z,-1.66
2023-02-26T17:45:42.326Z,-1.66
2023-02-26T17:47:22.630Z,-1.63
2023-02-26T17:48:54.656Z,-1.59
2023-02-26T17:50:42.112Z,-1.60
2023-02-26T17:52:14.366Z,-1.56
2023-02-26T17:53:46.807Z,-1.52
2023-02-26T17:55:18.597Z,-1.51
2023-02-26T17:56:50.565Z,-1.51
2023-02-26T17:58:33.673Z,-1.51
2023-02-26T18:00:05.912Z,-1.48
2023-02-26T18:01:47.066Z,-1.48
2023-02-26T18:03:20.361Z,-1.47
2023-02-26T18:04:52.439Z,-1.47
2023-02-26T18:06:25.336Z,-1.49
2023-02-26T18:07:57.264Z,-1.50
2023-02-26T18:09:29.181Z,-1.50
2023-02-26T18:11:02.620Z,-1.54
2023-02-26T18:12:34.406Z,-1.53
2023-02-26T18:14:06.407Z,-1.58
2023-02-26T18:15:39.336Z,-1.60
2023-02-26T18:17:14.658Z,-1.63
2023-02-26T18:18:46.668Z,-1.67
2023-02-26T18:20:24.436Z,-1.72
2023-02-26T18:21:56.387Z,-1.75
2023-02-26T18:23:28.316Z,-1.79
2023-02-26T18:25:00.414Z,-1.83
2023-02-26T18:26:33.360Z,-1.87
2023-02-26T18:28:06.067Z,-1.91
2023-02-26T18:29:38.006Z,-1.93
2023-02-26T18:31:10.499Z,-1.97
2023-02-26T18:32:42.623Z,-2.02
2023-02-26T18:34:14.636Z,-2.05
2023-02-26T18:35:50.186Z,-2.08
2023-02-26T18:37:25.957Z,-2.12
2023-02-26T18:39:01.493Z,-2.14
2023-02-26T18:40:33.500Z,-2.20
2023-02-26T18:42:06.015Z,-2.23
2023-02-26T18:43:37.719Z,-2.26
2023-02-26T18:45:11.214Z,-2.32
2023-02-26T18:46:44.990Z,-2.34
2023-02-26T18:48:18.968Z,-2.35
2023-02-26T18:49:51.644Z,-2.38
2023-02-26T18:51:23.561Z,-2.40
2023-02-26T18:52:55.498Z,-2.42
2023-02-26T18:54:27.219Z,-2.43
2023-02-26T18:55:59.091Z,-2.45
2023-02-26T18:57:30.869Z,-2.46
2023-02-26T18:59:03.791Z,-2.47
2023-02-26T19:00:35.813Z,-2.48
2023-02-26T19:02:11.920Z,-2.48
2023-02-26T19:03:43.726Z,-2.47
2023-02-26T19:05:18.255Z,-2.48
2023-02-26T19:06:50.049Z,-2.49
2023-02-26T19:08:22.142Z,-2.49
2023-02-26T19:09:53.947Z,-2.50
2023-02-26T19:11:25.996Z,-2.49
2023-02-26T19:12:58.660Z,-2.50
2023-02-26T19:14:30.401Z,-2.50
2023-02-26T19:16:02.413Z,-2.52
2023-02-26T19:17:34.226Z,-2.53
2023-02-26T19:19:07.889Z,-2.53
2023-02-26T19:20:41.794Z,-2.54
2023-02-26T19:22:14.281Z,-2.56
2023-02-26T19:23:45.968Z,-2.55
2023-02-26T19:25:23.944Z,-2.59
2023-02-26T19:26:56.287Z,-2.60
2023-02-26T19:28:28.225Z,-2.63
2023-02-26T19:30:00.101Z,-2.66
2023-02-26T19:31:32.839Z,-2.68
2023-02-26T19:33:04.580Z,-2.71
2023-02-26T19:34:36.431Z,-2.74
2023-02-26T19:36:08.477Z,-2.76
2023-02-26T19:37:41.544Z,-2.80
2023-02-26T19:39:14.941Z,-2.83
2023-02-26T19:40:46.634Z,-2.87
2023-02-26T19:42:18.743Z,-2.89
2023-02-26T19:43:50.892Z,-2.95
2023-02-26T19:45:23.069Z,-2.99
2023-02-26T19:46:55.385Z,-3.02
2023-02-26T19:48:27.417Z,-3.06
2023-02-26T19:49:59.174Z,-3.09
2023-02-26T19:51:31.382Z,-3.13
2023-02-26T19:53:03.867Z,-3.17
2023-02-26T19:54:36.006Z,-3.20
2023-02-26T19:56:07.780Z,-3.22
2023-02-26T19:57:40.031Z,-3.27
2023-02-26T19:59:12.556Z,-3.30
2023-02-26T20:00:44.249Z,-3.34
2023-02-26T20:02:16.295Z,-3.37
2023-02-26T20:03:49.159Z,-3.41
2023-02-26T20:05:21.356Z,-3.44
2023-02-26T20:06:53.228Z,-3.46
2023-02-26T20:08:27.793Z,-3.50
2023-02-26T20:10:01.052Z,-3.53
2023-02-26T20:11:34.194Z,-3.56
2023-02-26T20:13:06.106Z,-3.59
2023-02-26T20:14:38.031Z,-3.63
2023-02-26T20:16:11.663Z,-3.66
2023-02-26T20:17:43.543Z,-3.70
2023-02-26T20:19:15.526Z,-3.72
2023-02-26T20:20:47.219Z,-3.75
2023-02-26T20:22:21.307Z,-3.76
2023-02-26T20:23:53.559Z,-3.80
2023-02-26T20:25:25.401Z,-3.82
2023-02-26T20:26:57.940Z,-3.85
2023-02-26T20:28:29.915Z,-3.85
2023-02-26T20:30:02.790Z,-3.85
2023-02-26T20:31:34.973Z,-3.88
2023-02-26T20:33:07.012Z,-3.89
2023-02-26T20:34:39.005Z,-3.91
2023-02-26T20:36:11.132Z,-3.93
2023-02-26T20:37:43.127Z,-3.93
2023-02-26T20:39:15.369Z,-3.95
2023-02-26T20:40:48.558Z,-3.97
2023-02-26T20:42:20.531Z,-3.99
2023-02-26T20:43:52.403Z,-4.01
2023-02-26T20:45:24.143Z,-4.01
2023-02-26T20:46:56.143Z,-4.04
2023-02-26T20:48:28.518Z,-4.06
2023-02-26T20:50:00.765Z,-4.08
2023-02-26T20:51:32.745Z,-4.09
2023-02-26T20:53:07.146Z,-4.12
2023-02-26T20:54:38.919Z,-4.12
2023-02-26T20:56:11.016Z,-4.13
2023-02-26T20:57:42.968Z,-4.13
2023-02-26T20:59:16.275Z,-4.15
2023-02-26T21:00:48.026Z,-4.16
2023-02-26T21:02:21.182Z,-4.17
2023-02-26T21:03:54.194Z,-4.18
2023-02-26T21:05:25.996Z,-4.18
2023-02-26T21:07:12.927Z,-4.18
2023-02-26T21:08:44.962Z,-4.19
2023-02-26T21:10:18.573Z,-4.20
2023-02-26T21:11:52.538Z,-4.20
2023-02-26T21:13:24.278Z,-4.21
2023-02-26T21:14:55.962Z,-4.21
2023-02-26T21:16:30.697Z,-4.23
2023-02-26T21:18:02.600Z,-4.22
2023-02-26T21:19:34.348Z,-4.24
2023-02-26T21:21:06.256Z,-4.24
2023-02-26T21:22:38.691Z,-4.24
2023-02-26T21:24:10.454Z,-4.25
2023-02-26T21:25:42.315Z,-4.25
2023-02-26T21:27:16.736Z,-4.26
2023-02-26T21:28:48.875Z,-4.28
2023-02-26T21:30:20.652Z,-4.30
2023-02-26T21:31:53.817Z,-4.32
2023-02-26T21:33:25.923Z,-4.33
2023-02-26T21:34:58.921Z,-4.35
2023-02-26T21:36:30.624Z,-4.35
2023-02-26T21:38:02.430Z,-4.37
2023-02-26T21:39:35.035Z,-4.40
2023-02-26T21:41:07.009Z,-4.39
2023-02-26T21:42:38.750Z,-4.41
2023-02-26T21:44:10.677Z,-4.43
2023-02-26T21:45:44.330Z,-4.43
2023-02-26T21:47:16.452Z,-4.46
2023-02-26T21:48:50.274Z,-4.47
2023-02-26T21:50:22.197Z,-4.49
2023-02-26T21:51:54.158Z,-4.51
2023-02-26T21:53:26.917Z,-4.54
2023-02-26T21:54:58.796Z,-4.55
2023-02-26T21:56:31.008Z,-4.56
2023-02-26T21:58:03.054Z,-4.58
2023-02-26T21:59:35.309Z,-4.58
2023-02-26T22:01:06.998Z,-4.60
2023-02-26T22:02:39.259Z,-4.62
2023-02-26T22:04:12.129Z,-4.61
2023-02-26T22:05:44.167Z,-4.60
2023-02-26T22:07:15.994Z,-4.63
2023-02-26T22:08:47.747Z,-4.63
2023-02-26T22:10:19.724Z,-4.64
2023-02-26T22:11:51.464Z,-4.64
2023-02-26T22:13:23.387Z,-4.65
2023-02-26T22:14:55.101Z,-4.65
2023-02-26T22:16:27.137Z,-4.67
2023-02-26T22:17:59.416Z,-4.68
2023-02-26T22:19:31.123Z,-4.68
2023-02-26T22:21:02.833Z,-4.68
2023-02-26T22:22:34.584Z,-4.68
2023-02-26T22:24:06.739Z,-4.69
2023-02-26T22:25:38.510Z,-4.71
2023-02-26T22:27:10.650Z,-4.71
2023-02-26T22:28:42.353Z,-4.70
2023-02-26T22:30:14.724Z,-4.72
2023-02-26T22:31:47.688Z,-4.72
2023-02-26T22:33:19.740Z,-4.74
2023-02-26T22:34:52.417Z,-4.74
2023-02-26T22:36:25.174Z,-4.76
2023-02-26T22:37:56.940Z,-4.78
2023-02-26T22:39:28.829Z,-4.79
2023-02-26T22:41:00.560Z,-4.80
2023-02-26T22:42:32.324Z,-4.81
2023-02-26T22:44:04.995Z,-4.82
2023-02-26T22:45:36.838Z,-4.83
2023-02-26T22:47:10.322Z,-4.82
2023-02-26T22:48:42.092Z,-4.83
2023-02-26T22:50:15.514Z,-4.83
2023-02-26T22:51:47.203Z,-4.83
2023-02-26T22:53:18.964Z,-4.83
2023-02-26T22:54:50.732Z,-4.82
2023-02-26T22:56:22.463Z,-4.83
2023-02-26T22:57:54.270Z,-4.84
2023-02-26T22:59:26.079Z,-4.83
2023-02-26T23:01:02.191Z,-4.85
2023-02-26T23:02:34.269Z,-4.84
2023-02-26T23:04:06.015Z,-4.85
2023-02-26T23:05:37.784Z,-4.86
2023-02-26T23:07:09.557Z,-4.86
2023-02-26T23:08:41.544Z,-4.86
2023-02-26T23:10:15.709Z,-4.87
2023-02-26T23:11:47.662Z,-4.87
2023-02-26T23:13:19.473Z,-4.88
2023-02-26T23:14:51.167Z,-4.90
2023-02-26T23:16:23.102Z,-4.89
2023-02-26T23:17:54.829Z,-4.89
2023-02-26T23:19:26.991Z,-4.90
2023-02-26T23:20:59.114Z,-4.90
2023-02-26T23:22:30.937Z,-4.91
2023-02-26T23:24:02.700Z,-4.94
2023-02-26T23:25:34.422Z,-4.95
2023-02-26T23:27:06.116Z,-4.95
2023-02-26T23:28:38.123Z,-4.97
2023-02-26T23:30:10.972Z,-4.96
2023-02-26T23:31:43.009Z,-4.98
2023-02-26T23:33:15.027Z,-4.97
2023-02-26T23:34:46.735Z,-4.97
2023-02-26T23:36:18.441Z,-4.97
2023-02-26T23:37:50.275Z,-4.99
2023-02-26T23:39:21.958Z,-4.97
2023-02-26T23:40:53.658Z,-4.96
2023-02-26T23:42:25.551Z,-4.97
2023-02-26T23:43:57.271Z,-4.96
2023-02-26T23:45:29.124Z,-4.96
2023-02-26T23:47:00.845Z,-4.96
2023-02-26T23:48:32.565Z,-4.96
2023-02-26T23:50:05.234Z,-4.97
2023-02-26T23:51:38.480Z,-4.99
2023-02-26T23:53:10.246Z,-4.98
2023-02-26T23:54:42.153Z,-4.99
2023-02-26T23:56:14.212Z,-5.03
2023-02-26T23:57:45.911Z,-5.04
2023-02-26T23:59:18.498Z,-5.06
